Time;durP1;ratioP1;P1;durP2;ratioP2;P2;SDS_P1;SDS_P2;PMS_P1;PMS_P2;Temp;Humidity;BMP_temperature;BMP_pressure;BME280_temperature;BME280_humidity;BME280_pressure;Samples;Min_cycle;Max_cycle;Signal;HPM_P1;HPM_P2
2021/11/26 00:01:27;;;;;;;2.65;1.70;;;2.30;99.90;;;;;;4991451;28;20178;-62
2021/11/26 00:03:53;;;;;;;0.10;0.10;;;2.30;99.90;;;;;;4976572;28;20071;-62
2021/11/26 00:06:19;;;;;;;1.65;1.55;;;2.30;99.90;;;;;;4991178;28;20440;-63
2021/11/26 00:08:45;;;;;;;0.57;0.57;;;2.30;99.90;;;;;;4976004;28;20039;-62
2021/11/26 00:11:10;;;;;;;8.98;3.85;;;2.20;99.90;;;;;;4991132;28;20053;-62
2021/11/26 00:13:40;;;;;;;1.08;1.08;;;2.20;99.90;;;;;;4975984;28;20049;-62
2021/11/26 00:16:10;;;;;;;0.85;0.85;;;2.20;99.90;;;;;;4976413;28;20105;-62
2021/11/26 00:18:41;;;;;;;0.90;0.90;;;2.20;99.90;;;;;;4990880;28;20038;-62
2021/11/26 00:21:08;;;;;;;0.65;0.65;;;2.20;99.90;;;;;;4991072;28;20129;-62
2021/11/26 00:23:34;;;;;;;2.72;0.80;;;2.20;99.90;;;;;;4990710;28;20031;-62
2021/11/26 00:26:00;;;;;;;0.35;0.35;;;2.20;99.90;;;;;;4990741;28;20049;-63
2021/11/26 00:28:26;;;;;;;0.45;0.45;;;2.20;99.90;;;;;;4976052;28;20066;-63
2021/11/26 00:30:53;;;;;;;0.45;0.45;;;2.20;99.90;;;;;;4990808;28;20031;-63
2021/11/26 00:33:21;;;;;;;1.17;1.10;;;2.20;99.90;;;;;;4975483;28;20039;-64
2021/11/26 00:35:47;;;;;;;1.42;1.33;;;2.20;99.90;;;;;;4990765;28;20122;-63
2021/11/26 00:38:14;;;;;;;0.10;0.10;;;2.30;99.90;;;;;;4975723;28;20408;-63
2021/11/26 00:40:39;;;;;;;5.00;1.73;;;2.30;99.90;;;;;;4975829;28;20038;-63
2021/11/26 00:43:05;;;;;;;0.65;0.65;;;2.30;99.90;;;;;;4990178;28;20050;-62
2021/11/26 00:45:31;;;;;;;1.55;0.95;;;2.20;99.90;;;;;;4990769;28;20027;-63
2021/11/26 00:47:57;;;;;;;0.17;0.17;;;2.30;99.90;;;;;;4990192;28;20089;-63
2021/11/26 00:50:23;;;;;;;1.45;1.35;;;2.30;99.90;;;;;;4975663;28;20034;-63
2021/11/26 00:52:49;;;;;;;2.08;1.65;;;2.40;99.90;;;;;;4975112;28;20463;-63
2021/11/26 00:55:15;;;;;;;0.73;0.73;;;2.40;99.90;;;;;;4975499;28;20053;-62
2021/11/26 00:57:41;;;;;;;0.40;0.40;;;2.50;99.90;;;;;;4975520;28;20066;-62
2021/11/26 01:00:12;;;;;;;0.20;0.20;;;2.50;99.90;;;;;;4975026;28;20042;-63
2021/11/26 01:02:39;;;;;;;;;;;2.60;99.90;;;;;;4990264;28;20039;-63
2021/11/26 01:05:07;;;;;;;2.35;0.65;;;2.60;99.90;;;;;;4975250;28;20060;-63
2021/11/26 01:07:33;;;;;;;1.00;0.95;;;2.60;99.90;;;;;;4974944;28;20035;-63
2021/11/26 01:09:59;;;;;;;1.00;1.00;;;2.60;99.90;;;;;;4975169;28;20058;-63
2021/11/26 01:12:25;;;;;;;0.22;0.22;;;2.50;99.90;;;;;;4974847;28;20463;-64
2021/11/26 01:14:52;;;;;;;0.35;0.35;;;2.40;99.90;;;;;;4974988;28;20166;-63
2021/11/26 01:17:18;;;;;;;0.20;0.20;;;2.40;99.90;;;;;;4975128;28;20034;-62
2021/11/26 01:19:45;;;;;;;0.20;0.20;;;2.40;99.90;;;;;;4990045;28;20039;-62
2021/11/26 01:22:12;;;;;;;0.35;0.35;;;2.40;99.90;;;;;;4974958;28;20163;-62
2021/11/26 01:24:39;;;;;;;1.55;1.50;;;2.40;99.90;;;;;;4974869;28;20041;-62
2021/11/26 01:27:07;;;;;;;0.60;0.57;;;2.40;99.90;;;;;;4974784;28;20055;-62
2021/11/26 01:29:34;;;;;;;2.72;2.47;;;2.40;99.90;;;;;;4989571;28;20672;-63
2021/11/26 01:32:02;;;;;;;0.10;0.10;;;2.40;99.90;;;;;;4989645;28;20085;-62
2021/11/26 01:34:28;;;;;;;0.40;0.40;;;2.40;99.90;;;;;;4974568;28;20050;-62
2021/11/26 01:36:54;;;;;;;1.58;1.48;;;2.40;99.90;;;;;;4974377;28;20047;-62
2021/11/26 01:39:20;;;;;;;1.20;1.20;;;2.40;99.90;;;;;;4974784;28;20486;-62
2021/11/26 01:41:46;;;;;;;0.63;0.60;;;2.40;99.90;;;;;;4974633;28;20066;-63
2021/11/26 01:44:12;;;;;;;3.05;1.42;;;2.40;99.90;;;;;;4973545;28;20074;-62
2021/11/26 01:46:44;;;;;;;2.63;2.42;;;2.40;99.90;;;;;;4974294;28;20464;-63
2021/11/26 01:49:12;;;;;;;1.50;1.40;;;2.40;99.90;;;;;;4974254;28;20122;-63
2021/11/26 01:51:38;;;;;;;2.45;2.33;;;2.40;99.90;;;;;;4974296;28;20031;-64
2021/11/26 01:54:07;;;;;;;0.28;0.28;;;2.30;99.90;;;;;;4974357;28;20039;-62
2021/11/26 01:56:33;;;;;;;1.65;1.30;;;2.30;99.90;;;;;;4973952;28;20089;-63
2021/11/26 01:58:59;;;;;;;0.25;0.25;;;2.30;99.90;;;;;;4974209;28;20023;-64
2021/11/26 02:01:26;;;;;;;2.17;1.10;;;2.30;99.90;;;;;;4974060;28;20065;-64
2021/11/26 02:03:52;;;;;;;0.30;0.30;;;2.30;99.90;;;;;;4974004;28;20511;-62
2021/11/26 02:06:18;;;;;;;0.98;0.98;;;2.30;99.90;;;;;;4974090;28;20534;-61
2021/11/26 02:08:44;;;;;;;0.10;0.10;;;2.30;99.90;;;;;;4974144;28;20502;-63
2021/11/26 02:11:11;;;;;;;0.20;0.20;;;2.30;99.90;;;;;;4974107;28;20034;-64
2021/11/26 02:13:37;;;;;;;1.17;1.17;;;2.30;99.90;;;;;;4974117;28;20046;-62
2021/11/26 02:16:04;;;;;;;0.45;0.38;;;2.30;99.90;;;;;;4974022;28;20039;-62
2021/11/26 02:18:31;;;;;;;0.10;0.10;;;2.40;99.90;;;;;;4974214;28;20027;-62
2021/11/26 02:20:57;;;;;;;0.47;0.47;;;2.40;99.90;;;;;;4973624;28;20034;-62
2021/11/26 02:23:24;;;;;;;1.42;1.23;;;2.30;99.90;;;;;;4974069;28;20030;-62
2021/11/26 02:25:51;;;;;;;1.38;1.27;;;2.40;99.90;;;;;;4988931;28;20045;-62
2021/11/26 02:28:19;;;;;;;0.30;0.30;;;2.40;99.90;;;;;;4988433;28;20443;-62
2021/11/26 02:30:45;;;;;;;0.45;0.45;;;2.40;99.90;;;;;;4973700;28;20046;-62
2021/11/26 02:33:22;;;;;;;0.80;0.80;;;2.30;99.90;;;;;;4988761;28;20046;-62
2021/11/26 02:35:52;;;;;;;0.40;0.40;;;2.30;99.90;;;;;;4973965;28;20035;-62
2021/11/26 02:38:20;;;;;;;0.73;0.73;;;2.30;99.90;;;;;;4973526;28;20027;-62
2021/11/26 02:40:46;;;;;;;1.27;1.23;;;2.30;99.90;;;;;;4988396;28;20483;-62
2021/11/26 02:43:13;;;;;;;2.03;1.30;;;2.30;99.90;;;;;;4973209;28;20054;-62
2021/11/26 02:45:42;;;;;;;0.32;0.32;;;2.30;99.90;;;;;;4988669;28;20081;-62
2021/11/26 02:48:08;;;;;;;0.10;0.10;;;2.30;99.90;;;;;;4973466;28;20034;-62
2021/11/26 02:50:35;;;;;;;3.15;1.33;;;2.20;99.90;;;;;;4988416;28;20122;-62
2021/11/26 02:53:02;;;;;;;0.50;0.50;;;2.30;99.90;;;;;;4988558;28;20031;-62
2021/11/26 02:55:31;;;;;;;1.75;1.65;;;2.30;99.90;;;;;;4988766;28;20031;-62
2021/11/26 02:57:58;;;;;;;1.65;0.98;;;2.20;99.90;;;;;;4977431;28;20065;-62
2021/11/26 03:00:27;;;;;;;2.75;2.55;;;2.20;99.90;;;;;;4977406;28;20035;-62
2021/11/26 03:02:54;;;;;;;0.70;0.70;;;2.20;99.90;;;;;;4977427;28;20035;-62
2021/11/26 03:05:21;;;;;;;0.88;0.88;;;2.20;99.90;;;;;;4992632;28;20039;-63
2021/11/26 03:07:47;;;;;;;0.20;0.20;;;2.20;99.90;;;;;;4977153;28;20034;-62
2021/11/26 03:10:17;;;;;;;0.30;0.30;;;2.20;99.90;;;;;;4992050;28;20035;-63
2021/11/26 03:13:08;;;;;;;0.15;0.15;;;2.20;99.90;;;;;;4977097;28;20058;-62
2021/11/26 03:15:38;;;;;;;0.47;0.47;;;2.10;99.90;;;;;;4992249;28;20041;-62
2021/11/26 03:18:05;;;;;;;0.23;0.23;;;2.10;99.90;;;;;;4976968;28;20487;-63
2021/11/26 03:20:32;;;;;;;0.10;0.10;;;2.10;99.90;;;;;;4977250;28;20094;-61
2021/11/26 03:22:58;;;;;;;0.17;0.17;;;2.10;99.90;;;;;;4991996;28;20042;-61
2021/11/26 03:25:25;;;;;;;1.35;1.27;;;2.20;99.90;;;;;;4992168;28;20413;-62
2021/11/26 03:27:51;;;;;;;1.08;1.08;;;2.20;99.90;;;;;;4991963;28;20431;-62
2021/11/26 03:30:21;;;;;;;0.40;0.40;;;2.20;99.90;;;;;;4976702;28;20524;-62
2021/11/26 03:32:48;;;;;;;0.65;0.65;;;2.30;99.90;;;;;;4991755;28;20122;-62
2021/11/26 03:35:16;;;;;;;0.10;0.10;;;2.30;99.90;;;;;;4976714;28;20037;-63
2021/11/26 03:37:42;;;;;;;5.18;1.23;;;2.30;99.90;;;;;;4976960;28;20081;-62
2021/11/26 03:40:11;;;;;;;0.30;0.30;;;2.30;99.90;;;;;;4991568;28;20377;-62
2021/11/26 03:42:37;;;;;;;2.55;1.55;;;2.30;99.90;;;;;;4975274;28;20070;-63
2021/11/26 03:45:06;;;;;;;0.10;0.10;;;2.30;99.90;;;;;;4976487;28;20496;-62
2021/11/26 03:47:32;;;;;;;0.30;0.30;;;2.20;99.90;;;;;;4991710;28;20407;-63
2021/11/26 03:49:57;;;;;;;0.68;0.68;;;2.30;99.90;;;;;;4991452;28;20039;-63
2021/11/26 03:52:23;;;;;;;0.40;0.40;;;2.30;99.90;;;;;;4976643;28;20046;-63
2021/11/26 03:54:49;;;;;;;6.32;2.78;;;2.30;99.90;;;;;;4976380;28;20035;-62
2021/11/26 03:57:15;;;;;;;3.65;3.35;;;2.30;99.90;;;;;;4976105;28;20388;-63
2021/11/26 03:59:41;;;;;;;1.52;1.45;;;2.30;99.90;;;;;;4976362;28;20038;-62
2021/11/26 04:02:08;;;;;;;2.72;2.50;;;2.30;99.90;;;;;;4976232;28;20034;-63
2021/11/26 04:04:34;;;;;;;2.05;1.40;;;2.20;99.90;;;;;;4976188;28;20491;-63
2021/11/26 04:06:59;;;;;;;0.43;0.43;;;2.20;99.90;;;;;;4975453;28;20043;-62
2021/11/26 04:09:26;;;;;;;0.57;0.57;;;2.20;99.90;;;;;;4991416;28;20034;-62
2021/11/26 04:11:51;;;;;;;0.95;0.95;;;2.20;99.90;;;;;;4976312;28;20134;-63
2021/11/26 04:14:17;;;;;;;0.32;0.32;;;2.20;99.90;;;;;;4975940;28;20114;-62
2021/11/26 04:16:45;;;;;;;0.10;0.10;;;2.20;99.90;;;;;;4976007;28;20033;-62
2021/11/26 04:19:11;;;;;;;0.10;0.10;;;2.20;99.90;;;;;;4975844;28;20113;-62
2021/11/26 04:21:37;;;;;;;1.95;1.58;;;2.20;99.90;;;;;;4975923;28;20110;-62
2021/11/26 04:24:03;;;;;;;4.85;1.95;;;2.20;99.90;;;;;;4975759;28;20031;-62
2021/11/26 04:26:30;;;;;;;0.60;0.60;;;2.20;99.90;;;;;;4975984;28;20034;-62
2021/11/26 04:28:56;;;;;;;0.43;0.43;;;2.20;99.90;;;;;;4975738;28;20039;-62
2021/11/26 04:31:22;;;;;;;0.32;0.32;;;2.20;99.90;;;;;;4975931;28;20031;-63
2021/11/26 04:33:48;;;;;;;0.10;0.10;;;2.20;99.90;;;;;;4975917;28;20026;-63
2021/11/26 04:36:15;;;;;;;7.50;1.27;;;2.20;99.90;;;;;;4990819;28;20035;-63
2021/11/26 04:38:41;;;;;;;0.30;0.30;;;2.20;99.90;;;;;;4975646;28;20034;-63
2021/11/26 04:41:07;;;;;;;3.88;2.45;;;2.20;99.90;;;;;;4975716;28;20035;-63
2021/11/26 04:43:33;;;;;;;1.95;1.80;;;2.20;99.90;;;;;;4975390;28;20050;-63
2021/11/26 04:45:59;;;;;;;0.88;0.88;;;2.10;99.90;;;;;;4975326;28;20380;-63
2021/11/26 04:48:25;;;;;;;0.35;0.35;;;2.10;99.90;;;;;;4975252;28;20037;-63
2021/11/26 04:50:51;;;;;;;0.25;0.25;;;2.10;99.90;;;;;;4975410;28;20034;-62
2021/11/26 04:53:18;;;;;;;1.17;1.17;;;2.10;99.90;;;;;;4975117;28;20525;-63
2021/11/26 04:55:44;;;;;;;1.45;1.20;;;2.10;99.90;;;;;;4990314;28;20031;-62
2021/11/26 04:58:10;;;;;;;0.17;0.17;;;2.10;99.90;;;;;;4975032;28;20023;-63
2021/11/26 05:00:37;;;;;;;3.50;3.28;;;2.10;99.90;;;;;;4987771;28;20088;-63
2021/11/26 05:03:05;;;;;;;0.40;0.40;;;2.10;99.90;;;;;;4994701;28;20027;-62
2021/11/26 05:05:31;;;;;;;1.08;0.98;;;2.10;99.90;;;;;;4994432;28;20081;-61
2021/11/26 05:08:01;;;;;;;2.08;1.95;;;2.10;99.90;;;;;;4993659;28;20042;-62
2021/11/26 05:10:28;;;;;;;1.75;1.38;;;2.10;99.90;;;;;;4994180;28;20475;-62
2021/11/26 05:12:58;;;;;;;2.10;0.75;;;2.10;99.90;;;;;;4994396;28;20073;-63
2021/11/26 05:15:29;;;;;;;1.23;1.13;;;2.20;99.90;;;;;;4993876;28;20035;-63
2021/11/26 05:18:04;;;;;;;0.13;0.13;;;2.10;99.90;;;;;;4992912;28;20026;-64
2021/11/26 05:20:32;;;;;;;0.52;0.52;;;2.10;99.90;;;;;;4993107;28;20038;-63
2021/11/26 05:22:58;;;;;;;8.32;2.92;;;2.10;99.90;;;;;;4994577;28;20030;-64
2021/11/26 05:25:24;;;;;;;0.10;0.10;;;2.10;99.90;;;;;;4992876;28;20042;-63
2021/11/26 05:27:51;;;;;;;0.47;0.47;;;2.10;99.90;;;;;;5009366;28;20077;-63
2021/11/26 05:30:17;;;;;;;4.82;3.42;;;2.00;99.90;;;;;;4992896;28;20061;-62
2021/11/26 05:32:43;;;;;;;4.95;0.73;;;2.00;99.90;;;;;;4992850;28;20027;-62
2021/11/26 05:35:12;;;;;;;0.57;0.57;;;2.00;99.90;;;;;;4993750;28;20026;-62
2021/11/26 05:37:39;;;;;;;4.35;1.85;;;2.00;99.90;;;;;;4994158;28;20069;-62
2021/11/26 05:40:09;;;;;;;0.57;0.57;;;2.00;99.90;;;;;;4992793;28;20074;-63
2021/11/26 05:42:35;;;;;;;2.03;1.92;;;2.00;99.90;;;;;;4945172;28;20051;-63
2021/11/26 05:45:03;;;;;;;1.48;0.60;;;2.10;99.90;;;;;;5023454;28;20026;-62
2021/11/26 05:47:29;;;;;;;0.30;0.30;;;2.00;99.90;;;;;;4993138;28;20026;-61
2021/11/26 05:49:54;;;;;;;0.93;0.90;;;2.00;99.90;;;;;;4993598;28;20034;-62
2021/11/26 05:52:20;;;;;;;0.10;0.10;;;2.10;99.90;;;;;;4993516;28;20119;-61
2021/11/26 05:54:46;;;;;;;0.57;0.57;;;2.10;99.90;;;;;;4992433;28;20124;-62
2021/11/26 05:57:12;;;;;;;1.60;1.50;;;2.10;99.90;;;;;;4993442;28;20088;-62
2021/11/26 05:59:38;;;;;;;0.40;0.40;;;2.10;99.90;;;;;;4995736;28;20075;-62
2021/11/26 06:02:04;;;;;;;0.10;0.10;;;2.00;99.90;;;;;;4993278;28;20126;-62
2021/11/26 06:04:31;;;;;;;0.88;0.88;;;2.10;99.90;;;;;;4993146;28;20344;-62
2021/11/26 06:06:58;;;;;;;0.45;0.45;;;2.10;99.90;;;;;;4993163;28;20046;-62
2021/11/26 06:09:25;;;;;;;1.30;1.30;;;2.10;99.90;;;;;;4975781;28;20034;-62
2021/11/26 06:11:50;;;;;;;0.85;0.85;;;2.00;99.90;;;;;;4992205;28;20118;-62
2021/11/26 06:14:16;;;;;;;1.10;1.05;;;2.00;99.90;;;;;;4993250;28;20046;-62
2021/11/26 06:16:42;;;;;;;0.20;0.20;;;2.10;99.90;;;;;;4992895;28;20031;-62
2021/11/26 06:19:08;;;;;;;0.40;0.40;;;2.10;99.90;;;;;;4991855;28;20065;-62
2021/11/26 06:21:34;;;;;;;1.35;1.35;;;2.10;99.90;;;;;;4992170;28;20049;-62
2021/11/26 06:24:00;;;;;;;42.75;4.60;;;2.00;99.90;;;;;;4991933;28;20030;-62
2021/11/26 06:26:29;;;;;;;1.05;1.05;;;2.10;99.90;;;;;;5001653;28;20028;-62
2021/11/26 06:28:54;;;;;;;1.27;1.25;;;2.00;99.90;;;;;;5012836;28;20060;-62
2021/11/26 06:31:20;;;;;;;3.92;2.92;;;2.00;99.90;;;;;;5012132;28;20514;-62
2021/11/26 06:33:46;;;;;;;0.22;0.22;;;2.00;99.90;;;;;;5011492;28;20026;-62
2021/11/26 06:36:12;;;;;;;0.30;0.30;;;2.00;99.90;;;;;;5012670;28;20034;-62
2021/11/26 06:38:38;;;;;;;0.68;0.68;;;2.00;99.90;;;;;;5012644;28;20492;-62
2021/11/26 06:41:03;;;;;;;1.27;1.27;;;2.00;99.90;;;;;;5012651;28;20068;-62
2021/11/26 06:43:29;;;;;;;0.20;0.20;;;2.00;99.90;;;;;;5011011;28;20045;-62
2021/11/26 06:45:55;;;;;;;1.65;1.40;;;2.00;99.90;;;;;;5012313;28;20026;-62
2021/11/26 06:48:27;;;;;;;0.20;0.20;;;2.00;99.90;;;;;;5012716;28;20036;-62
2021/11/26 06:50:53;;;;;;;0.10;0.10;;;2.00;99.90;;;;;;5012600;28;20030;-63
2021/11/26 06:53:19;;;;;;;1.85;1.75;;;2.00;99.90;;;;;;5012256;28;20627;-62
2021/11/26 06:55:45;;;;;;;0.77;0.77;;;2.10;99.90;;;;;;5012674;28;20565;-62
2021/11/26 06:58:11;;;;;;;0.38;0.38;;;2.00;99.90;;;;;;5010959;28;20042;-62
2021/11/26 07:00:37;;;;;;;5.50;4.95;;;2.00;99.90;;;;;;5011377;28;20548;-62
2021/11/26 07:03:03;;;;;;;2.50;2.30;;;2.10;99.90;;;;;;5010745;28;20042;-62
2021/11/26 07:05:29;;;;;;;1.70;1.60;;;2.00;99.90;;;;;;5012004;28;20022;-62
2021/11/26 07:07:55;;;;;;;0.63;0.63;;;2.00;99.90;;;;;;5011897;28;20111;-62
2021/11/26 07:10:21;;;;;;;0.52;0.52;;;2.00;99.90;;;;;;5000486;28;20030;-62
2021/11/26 07:12:47;;;;;;;1.45;1.35;;;2.00;99.90;;;;;;5005113;28;20041;-61
2021/11/26 07:15:16;;;;;;;1.65;1.35;;;2.00;99.90;;;;;;4992369;28;20145;-61
2021/11/26 07:17:43;;;;;;;0.65;0.65;;;2.00;99.90;;;;;;4992760;28;20487;-62
2021/11/26 07:20:10;;;;;;;0.10;0.10;;;1.90;99.90;;;;;;4992706;28;20035;-62
2021/11/26 07:22:36;;;;;;;0.20;0.20;;;2.00;99.90;;;;;;4992689;28;20117;-62
2021/11/26 07:25:05;;;;;;;0.70;0.70;;;2.00;99.90;;;;;;4992405;28;20110;-61
2021/11/26 07:27:31;;;;;;;2.17;1.85;;;2.00;99.90;;;;;;4992350;28;20399;-62
2021/11/26 07:29:56;;;;;;;1.67;1.05;;;2.00;99.90;;;;;;4992581;28;20027;-62
2021/11/26 07:32:22;;;;;;;3.90;2.05;;;2.00;99.90;;;;;;4992177;28;20077;-64
2021/11/26 07:34:49;;;;;;;0.98;0.98;;;2.00;99.90;;;;;;4992253;28;20029;-61
2021/11/26 07:37:17;;;;;;;1.00;1.00;;;2.00;99.90;;;;;;4992652;28;20387;-62
2021/11/26 07:39:43;;;;;;;0.45;0.45;;;2.00;99.90;;;;;;4992794;28;20033;-61
2021/11/26 07:42:11;;;;;;;0.57;0.57;;;2.00;99.90;;;;;;4994062;28;20022;-61
2021/11/26 07:44:40;;;;;;;5.57;2.63;;;2.00;99.90;;;;;;4994532;28;20054;-61
2021/11/26 07:47:11;;;;;;;0.85;0.85;;;2.10;99.90;;;;;;4996155;28;20027;-61
2021/11/26 07:49:37;;;;;;;0.10;0.10;;;2.00;99.90;;;;;;4996153;28;20069;-61
2021/11/26 07:52:05;;;;;;;1.73;1.42;;;2.10;99.90;;;;;;4996126;28;20034;-61
2021/11/26 07:54:32;;;;;;;8.90;4.97;;;2.10;99.90;;;;;;4995906;28;20061;-63
2021/11/26 07:56:58;;;;;;;0.10;0.10;;;2.10;99.90;;;;;;4978424;28;20034;-62
2021/11/26 07:59:26;;;;;;;0.10;0.10;;;2.10;99.90;;;;;;4995489;28;20045;-62
2021/11/26 08:01:53;;;;;;;2.15;2.05;;;2.20;99.90;;;;;;4994309;28;20398;-62
2021/11/26 08:04:19;;;;;;;2.78;2.28;;;2.20;99.90;;;;;;4994569;28;20034;-62
2021/11/26 08:06:46;;;;;;;0.10;0.10;;;2.20;99.90;;;;;;4994407;28;20032;-62
2021/11/26 08:09:17;;;;;;;3.63;2.92;;;2.10;99.90;;;;;;4995534;28;20045;-62
2021/11/26 08:11:44;;;;;;;0.57;0.57;;;2.20;99.90;;;;;;4995601;28;20040;-62
2021/11/26 08:14:10;;;;;;;1.45;1.40;;;2.20;99.90;;;;;;4993888;28;20034;-62
2021/11/26 08:16:37;;;;;;;1.05;1.05;;;2.20;99.90;;;;;;4993937;28;20037;-62
2021/11/26 08:19:08;;;;;;;1.02;0.93;;;2.20;99.90;;;;;;4994426;28;20062;-64
2021/11/26 08:21:34;;;;;;;0.20;0.20;;;2.30;99.90;;;;;;4993804;28;20372;-62
2021/11/26 08:24:02;;;;;;;0.20;0.20;;;2.40;99.90;;;;;;4995636;28;20078;-62
2021/11/26 08:26:29;;;;;;;20.83;6.22;;;2.40;99.90;;;;;;4995536;28;20046;-62
2021/11/26 08:28:56;;;;;;;0.15;0.15;;;2.40;99.90;;;;;;4994590;28;20184;-62
2021/11/26 08:31:22;;;;;;;0.63;0.63;;;2.40;99.90;;;;;;4993611;28;20467;-62
2021/11/26 08:33:48;;;;;;;0.20;0.20;;;2.50;99.90;;;;;;4977229;28;20037;-62
2021/11/26 08:36:14;;;;;;;2.95;2.22;;;2.50;99.90;;;;;;4993374;28;20039;-63
2021/11/26 08:38:40;;;;;;;0.73;0.73;;;2.50;99.90;;;;;;4995109;28;20037;-62
2021/11/26 08:41:06;;;;;;;0.13;0.13;;;2.50;99.90;;;;;;4994001;28;20490;-62
2021/11/26 08:43:32;;;;;;;0.65;0.65;;;2.50;99.90;;;;;;4994372;28;20078;-61
2021/11/26 08:45:58;;;;;;;0.10;0.10;;;2.50;99.90;;;;;;4994703;28;20439;-62
2021/11/26 08:48:24;;;;;;;0.85;0.77;;;2.50;99.90;;;;;;4993726;28;20039;-62
2021/11/26 08:50:50;;;;;;;0.45;0.45;;;2.60;99.90;;;;;;4995058;28;20391;-61
2021/11/26 08:53:18;;;;;;;3.60;2.83;;;2.60;99.90;;;;;;4993389;28;20089;-62
2021/11/26 08:55:47;;;;;;;0.30;0.30;;;2.60;99.90;;;;;;4977553;28;20038;-62
2021/11/26 08:58:14;;;;;;;4.00;3.30;;;2.60;99.90;;;;;;4994723;28;20038;-61
2021/11/26 09:00:41;;;;;;;0.10;0.10;;;2.70;99.90;;;;;;4994378;28;20518;-61
2021/11/26 09:03:07;;;;;;;2.47;1.15;;;2.70;99.90;;;;;;4994428;28;20046;-61
2021/11/26 09:05:35;;;;;;;1.65;1.42;;;2.80;99.90;;;;;;4993120;28;20033;-61
2021/11/26 09:08:02;;;;;;;0.60;0.60;;;2.80;99.90;;;;;;4993203;28;20102;-61
2021/11/26 09:10:34;;;;;;;0.13;0.13;;;2.90;99.90;;;;;;4993308;28;20097;-62
2021/11/26 09:13:00;;;;;;;0.47;0.47;;;2.90;99.90;;;;;;4993303;28;20026;-61
2021/11/26 09:15:26;;;;;;;0.68;0.68;;;2.90;99.90;;;;;;4993839;28;20113;-61
2021/11/26 09:17:53;;;;;;;0.43;0.43;;;3.00;99.90;;;;;;4976892;28;20137;-62
2021/11/26 09:20:19;;;;;;;0.80;0.80;;;2.90;99.90;;;;;;4993275;28;20117;-62
2021/11/26 09:22:45;;;;;;;2.50;2.10;;;3.00;99.90;;;;;;4993733;28;20030;-62
2021/11/26 09:25:11;;;;;;;0.95;0.95;;;3.00;99.90;;;;;;4992868;28;20483;-61
2021/11/26 09:27:37;;;;;;;1.30;1.25;;;3.00;99.90;;;;;;4993872;28;20121;-62
2021/11/26 09:30:06;;;;;;;0.88;0.88;;;3.10;99.90;;;;;;4993862;28;20045;-62
2021/11/26 09:32:32;;;;;;;1.42;1.38;;;3.10;99.90;;;;;;4993562;28;20039;-62
2021/11/26 09:34:58;;;;;;;2.65;1.27;;;3.20;99.90;;;;;;4993931;28;20038;-62
2021/11/26 09:37:24;;;;;;;0.20;0.20;;;3.20;99.90;;;;;;4992045;28;20499;-62
2021/11/26 09:39:50;;;;;;;0.20;0.20;;;3.20;99.90;;;;;;4982990;28;20561;-62
2021/11/26 09:42:16;;;;;;;0.90;0.68;;;3.30;99.90;;;;;;4993655;28;20395;-62
2021/11/26 09:44:44;;;;;;;1.38;1.33;;;3.40;99.90;;;;;;4991943;28;20066;-61
2021/11/26 09:47:10;;;;;;;2.28;1.30;;;3.50;99.90;;;;;;4992545;28;20037;-62
2021/11/26 09:49:36;;;;;;;0.77;0.77;;;3.40;99.90;;;;;;4992562;28;20081;-61
2021/11/26 09:52:04;;;;;;;1.45;1.35;;;3.30;99.90;;;;;;4993625;28;20062;-62
2021/11/26 09:54:43;;;;;;;0.25;0.25;;;3.30;99.90;;;;;;4993602;28;20030;-62
2021/11/26 09:57:10;;;;;;;0.50;0.50;;;3.30;99.90;;;;;;4993828;28;20041;-62
2021/11/26 09:59:40;;;;;;;0.30;0.30;;;3.20;99.90;;;;;;4993475;28;20140;-62
2021/11/26 10:02:20;;;;;;;3.17;2.95;;;3.20;99.90;;;;;;4992574;28;20041;-63
2021/11/26 10:05:08;;;;;;;0.75;0.75;;;3.30;99.90;;;;;;4992207;28;20053;-62
2021/11/26 10:07:50;;;;;;;1.13;0.88;;;3.40;99.90;;;;;;4993499;28;20352;-63
2021/11/26 10:10:26;;;;;;;0.47;0.47;;;3.40;99.90;;;;;;4993452;28;20038;-62
2021/11/26 10:13:12;;;;;;;0.95;0.95;;;3.50;99.90;;;;;;4992256;28;20050;-62
2021/11/26 10:15:44;;;;;;;0.20;0.20;;;3.60;99.90;;;;;;4991945;28;20038;-62
2021/11/26 10:18:15;;;;;;;0.80;0.80;;;3.80;99.90;;;;;;4993053;28;20049;-61
2021/11/26 10:20:59;;;;;;;;;;;3.90;99.90;;;;;;4992280;28;20046;-60
2021/11/26 10:23:31;;;;;;;0.30;0.30;;;4.10;99.90;;;;;;4992994;28;19914;-62
2021/11/26 10:26:18;;;;;;;0.40;0.40;;;4.00;99.90;;;;;;4992269;28;20035;-62
2021/11/26 10:28:53;;;;;;;1.60;1.50;;;3.90;99.90;;;;;;4993114;28;20027;-62
2021/11/26 10:31:39;;;;;;;0.60;0.60;;;3.80;99.90;;;;;;4976508;28;20553;-62
2021/11/26 10:34:08;;;;;;;0.30;0.30;;;3.60;99.90;;;;;;4991676;28;20294;-62
2021/11/26 10:36:47;;;;;;;1.02;0.38;;;3.60;99.90;;;;;;4993078;28;20027;-62
2021/11/26 10:39:18;;;;;;;1.02;0.93;;;3.60;99.90;;;;;;4993096;28;20102;-62
2021/11/26 10:41:49;;;;;;;1.15;1.05;;;3.60;99.90;;;;;;4991719;28;20084;-62
2021/11/26 10:44:18;;;;;;;0.45;0.45;;;3.60;99.90;;;;;;4976053;28;20061;-62
2021/11/26 10:47:36;;;;;;;1.30;1.20;;;3.50;99.90;;;;;;4992734;28;20065;-64
2021/11/26 11:00:31;;;;;;;2.25;2.13;;;3.50;99.90;;;;;;4987513;28;20129;-62
2021/11/26 11:02:58;;;;;;;3.72;2.55;;;3.60;99.90;;;;;;4992546;28;20073;-63
2021/11/26 11:05:38;;;;;;;0.10;0.10;;;3.70;99.90;;;;;;4992782;28;20081;-63
2021/11/26 11:08:23;;;;;;;2.00;1.65;;;3.70;99.90;;;;;;4975325;28;20510;-62
2021/11/26 11:10:51;;;;;;;0.68;0.68;;;3.80;99.90;;;;;;4988785;28;20049;-62
2021/11/26 11:13:30;;;;;;;1.13;1.13;;;3.80;99.90;;;;;;4991358;28;20026;-63
2021/11/26 11:16:09;;;;;;;4.10;2.13;;;3.90;99.90;;;;;;4992372;28;20030;-62
2021/11/26 11:18:38;;;;;;;1.45;0.98;;;3.80;99.90;;;;;;4996054;28;20499;-62
2021/11/26 11:21:09;;;;;;;0.40;0.40;;;3.70;99.90;;;;;;4996078;28;20045;-61
2021/11/26 11:23:36;;;;;;;1.10;1.00;;;3.70;99.90;;;;;;4994625;28;20553;-63
2021/11/26 11:26:03;;;;;;;0.65;0.65;;;3.70;99.90;;;;;;5011334;28;20034;-63
2021/11/26 11:28:30;;;;;;;1.55;1.23;;;3.70;99.90;;;;;;5011065;28;20483;-63
2021/11/26 11:30:56;;;;;;;1.17;0.60;;;3.80;99.90;;;;;;4996223;28;20491;-62
2021/11/26 11:33:23;;;;;;;5.60;2.72;;;3.90;99.90;;;;;;4995177;28;20058;-61
2021/11/26 11:35:50;;;;;;;0.10;0.10;;;3.80;99.90;;;;;;4996192;28;20136;-62
2021/11/26 11:38:17;;;;;;;0.57;0.57;;;3.80;99.90;;;;;;5011190;28;20027;-62
2021/11/26 11:40:47;;;;;;;1.95;1.85;;;3.80;99.90;;;;;;4995916;28;20027;-67
2021/11/26 11:43:22;;;;;;;1.55;1.45;;;3.80;99.90;;;;;;5010617;28;20065;-69
2021/11/26 11:46:05;;;;;;;0.93;0.93;;;3.80;99.90;;;;;;4995567;28;20065;-62
2021/11/26 11:48:48;;;;;;;0.30;0.30;;;3.80;99.90;;;;;;4996045;28;20034;-63
2021/11/26 11:51:28;;;;;;;0.38;0.38;;;3.80;99.90;;;;;;5009587;28;20030;-61
2021/11/26 11:54:14;;;;;;;0.55;0.55;;;3.90;99.90;;;;;;5010390;28;20123;-60
2021/11/26 11:56:50;;;;;;;5.60;2.17;;;3.90;99.90;;;;;;4995305;28;20046;-61
2021/11/26 11:59:36;;;;;;;3.72;2.80;;;3.90;99.90;;;;;;4995618;28;20034;-61
2021/11/26 12:02:07;;;;;;;0.10;0.10;;;4.00;99.90;;;;;;5010393;28;20042;-61
2021/11/26 12:04:44;;;;;;;15.70;3.40;;;4.00;99.90;;;;;;5010434;28;20474;-61
2021/11/26 12:07:27;;;;;;;0.17;0.17;;;4.00;99.90;;;;;;5010136;28;20035;-61
2021/11/26 12:10:11;;;;;;;1.42;1.33;;;4.00;99.90;;;;;;5010221;28;20423;-61
2021/11/26 12:12:54;;;;;;;1.40;1.00;;;4.00;99.90;;;;;;4995445;28;20027;-62
2021/11/26 12:15:32;;;;;;;1.30;1.25;;;4.00;99.90;;;;;;4962622;28;20050;-62
2021/11/26 12:18:06;;;;;;;0.20;0.20;;;4.00;99.90;;;;;;4991114;28;20046;-62
2021/11/26 12:20:35;;;;;;;1.85;1.75;;;4.00;99.90;;;;;;4975787;28;20093;-62
2021/11/26 12:23:23;;;;;;;0.10;0.10;;;4.00;99.90;;;;;;4975631;28;20046;-62
2021/11/26 12:28:55;;;;;;;2.65;0.88;;;4.00;99.90;;;;;;4987968;28;20480;-62
2021/11/26 12:31:28;;;;;;;;;;;4.00;99.90;;;;;;4976117;28;20035;-61
2021/11/26 12:34:18;;;;;;;1.85;1.75;;;4.00;99.90;;;;;;4990699;28;19910;-63
2021/11/26 12:36:55;;;;;;;1.23;1.17;;;3.90;99.90;;;;;;4975443;28;20035;-62
2021/11/26 12:39:26;;;;;;;0.77;0.77;;;3.90;99.90;;;;;;4975524;28;20055;-62
2021/11/26 12:41:59;;;;;;;0.52;0.52;;;3.80;99.90;;;;;;4975089;28;20019;-61
2021/11/26 12:44:34;;;;;;;0.55;0.35;;;3.90;99.90;;;;;;4975345;28;20051;-61
2021/11/26 12:47:09;;;;;;;1.65;1.48;;;3.90;99.90;;;;;;4974139;28;20043;-61
2021/11/26 12:52:12;;;;;;;0.30;0.30;;;3.90;99.90;;;;;;4975347;28;20166;-61
2021/11/26 12:54:46;;;;;;;0.55;0.55;;;3.90;99.90;;;;;;4989571;28;20046;-62
2021/11/26 12:57:31;;;;;;;0.30;0.30;;;3.90;99.90;;;;;;4975227;28;20113;-61
2021/11/26 13:00:00;;;;;;;0.10;0.10;;;3.90;99.90;;;;;;4975309;28;20031;-62
2021/11/26 13:02:31;;;;;;;1.05;1.05;;;3.90;99.90;;;;;;4974890;28;20027;-61
2021/11/26 13:05:00;;;;;;;3.03;2.55;;;4.00;99.90;;;;;;4989974;28;20376;-61
2021/11/26 13:07:28;;;;;;;0.20;0.20;;;4.00;99.90;;;;;;4974637;28;20034;-62
2021/11/26 13:10:00;;;;;;;3.33;3.03;;;4.00;99.90;;;;;;4974471;28;20495;-62
2021/11/26 13:12:37;;;;;;;0.20;0.20;;;4.00;99.90;;;;;;4975171;28;20039;-61
2021/11/26 13:15:37;;;;;;;0.82;0.77;;;4.00;99.90;;;;;;4974875;28;20062;-61
2021/11/26 13:18:17;;;;;;;6.75;2.30;;;3.90;99.90;;;;;;4975056;28;20089;-61
2021/11/26 13:21:04;;;;;;;0.93;0.80;;;4.00;99.90;;;;;;4973506;28;20042;-61
2021/11/26 13:23:37;;;;;;;2.05;1.13;;;3.90;99.90;;;;;;4973667;28;20035;-61